Vasrig

Members
  • Content Count

    10
  • Joined

  • Last visited

Community Reputation

0 Neutral

Flight Sim Profile

  • Commercial Member
    No
  • Online Flight Organization Membership
    IVAO

Single Status Update

See all updates by Vasrig

  1. SBPA 222037Z 32026G40KT 1000 R11/0900 R29/1500 TSRA BKN010 BKN030 FEW040CB 23/20 Q1013